METAR stanice u blizini

 

LYBE - Beograd / Surčin, Srbija
Ažurirano: 23/10/2019 22:30
Vedro
Vedro
 Pravac vetra IJI
Vetar: IJI 13 km/h
Temperatura: 15°C
Tačka rose: 8°C
Vlažnost: 63%
Pritisak: 1019 hPa
Pregled: Vedro
Vidljivost: greater than 10 km
2019/10/23 20:30 LYBE 232030Z 11007KT CAVOK 15/08 Q1019 NOSIG
LYBT - Beograd / Batajnica, Srbija
Ažurirano: 23/10/2019 22:30
Vedro
Vedro
 Pravac vetra ISI
Vetar: ISI 11 km/h
Temperatura: 18°C
Tačka rose: 10°C
Vlažnost: 60%
Pritisak: 1018 hPa
Pregled: Vedro
Vidljivost: greater than 10 km
2019/10/23 20:30 LYBT 232030Z 07006KT 030V100 CAVOK 18/10 Q1018 NOSIG
LYVR - Vršac, Srbija
Ažurirano: 23/10/2019 18:00
NOT Current
Vedro
Vedro
 Pravac vetra varies
Vetar: varies 2 km/h
Temperatura: 22°C
Tačka rose: 7°C
Vlažnost: 38%
Pritisak: 1019 hPa
Pregled: Vedro
Vidljivost: greater than 10 km
2019/10/23 16:00 LYVR 231600Z VRB01KT CAVOK 22/07 Q1019 NOSIG
 
LYKV - Lađevci, Srbija
Ažurirano: 23/10/2019 22:30
Vedro
Vedro
 Pravac vetra calm
Vetar: Tišina
Temperatura: 8°C
Tačka rose: 8°C
Vlažnost: 100%
Pritisak: 1020 hPa
Pregled: Vedro
Vidljivost: greater than 10 km
2019/10/23 20:30 LYKV 232030Z 00000KT CAVOK 08/08 Q1020 NOSIG
LYNI - Niš, Srbija
Ažurirano: 23/10/2019 22:30
Vedro
Vedro
 Pravac vetra IJI
Vetar: IJI 4 km/h
Temperatura: 13°C
Tačka rose: 6°C
Vlažnost: 63%
Pritisak: 1021 hPa
Pregled: Vedro
Vidljivost: greater than 10 km
2019/10/23 20:30 LYNI 232030Z 12002KT CAVOK 13/06 Q1021 NOSIG
BKPR - Priština, Srbija
Ažurirano: 23/10/2019 22:30
Vedro
Vedro
 Pravac vetra calm
Vetar: Tišina
Temperatura: 10°C
Tačka rose: 2°C
Vlažnost: 58%
Pritisak: 1022 hPa
Pregled: Vedro
Vidljivost: greater than 10 km
2019/10/23 20:30 BKPR 232030Z 00000KT CAVOK 10/02 Q1022 NOSIG
 
LHPP - Pecs / Pogany, Hungary
Ažurirano: 23/10/2019 18:45
NOT Current
Partly Cloudy
Partly Cloudy
 Pravac vetra JJI
Vetar: JJI 4 km/h
Temperatura: 19°C
Tačka rose: 11°C
Vlažnost: 60%
Pritisak: 1019 hPa
Oblaci: Partly Cloudy
Vidljivost: 6 km
2019/10/23 16:45 LHPP 231645Z 15002KT 6000 NSC 19/11 Q1019
LHUD - Szeged, Hungary
Ažurirano: 04/07/2019 01:45
NOT Current
Vedro
Vedro
 Pravac vetra S
Vetar: S 7 km/h
Temperatura: 18°C
Tačka rose: 13°C
Vlažnost: 73%
Pritisak: 1019 hPa
Pregled: Vedro
Vidljivost: greater than 10 km
2019/07/03 23:45 LHUD 032345Z 35004KT CAVOK 18/13 Q1019
LRTR - Timisoara, Romania
Ažurirano: 23/10/2019 22:30
Vedro
Vedro
 Pravac vetra I
Vetar: I 15 km/h
Temperatura: 14°C
Tačka rose: 8°C
Vlažnost: 67%
Pritisak: 1019 hPa
Pregled: Vedro
Vidljivost: greater than 10 km
2019/10/23 20:30 LRTR 232030Z 09008KT CAVOK 14/08 Q1019
 
LRCV - Craiova, Romania
Ažurirano: 23/10/2019 22:30
Partly Cloudy
Partly Cloudy
 Pravac vetra varies
Vetar: varies 2 km/h
Temperatura: 11°C
Tačka rose: 8°C
Vlažnost: 82%
Pritisak: 1021 hPa
Oblaci: Partly Cloudy
Vidljivost: 9 km
2019/10/23 20:30 LRCV 232030Z VRB01KT 9000 NSC 11/08 Q1021
LBSF - Sofia, Bulgaria
Ažurirano: 23/10/2019 22:30
Vedro
Vedro
 Pravac vetra JJI
Vetar: JJI 6 km/h
Temperatura: 11°C
Tačka rose: 3°C
Vlažnost: 58%
Pritisak: 1023 hPa
Pregled: Vedro
Vidljivost: greater than 10 km
2019/10/23 20:30 LBSF 232030Z 15003KT CAVOK 11/03 Q1023 NOSIG
LWSK - Skoplje, Makedonija
Ažurirano: 23/10/2019 23:00
Vedro
Vedro
 Pravac vetra calm
Vetar: Tišina
Temperatura: 9°C
Tačka rose: 4°C
Vlažnost: 71%
Pritisak: 1022 hPa
Pregled: Vedro
Vidljivost: greater than 10 km
2019/10/23 21:00 LWSK 232100Z 00000KT CAVOK 09/04 Q1022 NOSIG
 
LYPG - Podgorica, Crna Gora
Ažurirano: 23/10/2019 22:30
Vedro
Vedro
 Pravac vetra varies
Vetar: varies 4 km/h
Temperatura: 15°C
Tačka rose: 10°C
Vlažnost: 72%
Pritisak: 1019 hPa
Pregled: Vedro
Vidljivost: greater than 10 km
2019/10/23 20:30 LYPG 232030Z VRB02KT CAVOK 15/10 Q1019 NOSIG
LQSA - Sarajevo, Bosna i Hercegovina
Ažurirano: 23/10/2019 22:30
Partly Cloudy
Partly Cloudy
 Pravac vetra varies
Vetar: varies 2 km/h
Temperatura: 8°C
Tačka rose: 6°C
Vlažnost: 87%
Pritisak: 1021 hPa
Oblaci: Partly Cloudy
Vidljivost: 6 km
2019/10/23 20:30 LQSA 232030Z VRB01KT 6000 NSC 08/06 Q1021 NOSIG
LDOS - Osijek, Hrvatksa
Ažurirano: 23/10/2019 22:30
Mist, Delimično oblačno
Mist, Delimično oblačno
 Pravac vetra ZSZ
Vetar: ZSZ 4 km/h
Temperatura: 11°C
Tačka rose: 10°C
Vlažnost: 94%
Pritisak: 1018 hPa
Pregled: Mist
Oblaci: Partly Cloudy
Vidljivost: 4 km
2019/10/23 20:30 LDOS 232030Z 29002KT 4000 BR NSC 11/10 Q1018